createdAt,value
2018-04-15T00:04:43.940Z,88.10
2018-04-15T00:07:12.722Z,88.80
2018-04-15T00:09:42.415Z,89.20
2018-04-15T00:12:11.749Z,90.00
2018-04-15T00:14:41.293Z,89.60
2018-04-15T00:19:43.932Z,89.80
2018-04-15T00:22:14.522Z,90.10
2018-04-15T00:24:45.425Z,90.20
2018-04-15T00:27:13.942Z,90.40
2018-04-15T00:32:14.418Z,90.50
2018-04-15T00:34:47.929Z,90.40
2018-04-15T00:37:17.717Z,90.70
2018-04-15T00:39:51.557Z,90.60
2018-04-15T00:42:20.889Z,90.60
2018-04-15T00:45:02.107Z,90.60
2018-04-15T00:47:30.918Z,90.60
2018-04-15T00:50:00.722Z,90.60
2018-04-15T00:52:29.383Z,90.60
2018-04-15T00:54:59.664Z,91.00
2018-04-15T00:57:28.961Z,90.70
2018-04-15T01:00:02.790Z,90.60
2018-04-15T01:02:32.713Z,90.30
2018-04-15T01:05:04.515Z,90.60
2018-04-15T01:07:33.786Z,90.60
2018-04-15T01:10:07.887Z,90.80
2018-04-15T01:12:36.421Z,90.80
2018-04-15T01:15:09.509Z,90.90
2018-04-15T01:17:38.341Z,90.80
2018-04-15T01:22:41.318Z,90.60
2018-04-15T01:25:14.431Z,90.50
2018-04-15T01:27:44.118Z,90.60
2018-04-15T01:30:17.197Z,90.70
2018-04-15T01:32:46.005Z,90.80
2018-04-15T01:35:20.252Z,90.80
2018-04-15T01:37:49.968Z,90.80
2018-04-15T01:40:21.285Z,90.90
2018-04-15T01:42:49.768Z,90.90
2018-04-15T01:45:32.121Z,91.00
2018-04-15T01:48:00.946Z,90.80
2018-04-15T01:50:29.507Z,90.80
2018-04-15T02:00:30.397Z,90.90
2018-04-15T02:02:59.337Z,90.70
2018-04-15T02:05:32.584Z,90.80
2018-04-15T02:08:01.186Z,90.80
2018-04-15T02:10:33.878Z,90.90
2018-04-15T02:13:02.429Z,90.90
2018-04-15T02:15:44.329Z,90.90
2018-04-15T02:18:13.553Z,91.20
2018-04-15T02:20:42.470Z,91.80
2018-04-15T02:23:10.996Z,91.60
2018-04-15T02:25:40.811Z,91.60
2018-04-15T02:28:10.930Z,91.90
2018-04-15T02:30:42.933Z,91.80
2018-04-15T02:33:12.480Z,91.80
2018-04-15T02:35:46.334Z,92.00
2018-04-15T02:38:14.872Z,92.20
2018-04-15T02:40:47.959Z,92.30
2018-04-15T02:43:17.661Z,92.40
2018-04-15T02:48:20.185Z,92.90
2018-04-15T02:51:01.335Z,92.70
2018-04-15T02:53:31.628Z,93.10
2018-04-15T02:56:00.179Z,92.20
2018-04-15T02:58:28.738Z,92.80
2018-04-15T03:00:58.719Z,92.90
2018-04-15T03:03:27.258Z,93.00
2018-04-15T03:06:08.798Z,92.40
2018-04-15T03:08:38.081Z,93.30
2018-04-15T03:11:08.392Z,93.50
2018-04-15T03:13:37.308Z,93.00
2018-04-15T03:16:06.239Z,92.80
2018-04-15T03:18:35.803Z,93.20
2018-04-15T03:21:09.048Z,93.30
2018-04-15T03:23:37.542Z,92.90
2018-04-15T03:26:11.253Z,92.90
2018-04-15T03:28:39.773Z,92.80
2018-04-15T03:31:21.846Z,92.90
2018-04-15T03:33:50.370Z,92.70
2018-04-15T03:36:18.879Z,92.70
2018-04-15T03:38:47.644Z,92.70
2018-04-15T03:41:18.816Z,92.70
2018-04-15T03:43:48.091Z,92.80
2018-04-15T03:46:20.437Z,92.70
2018-04-15T03:48:50.461Z,92.70
2018-04-15T03:51:24.182Z,92.90
2018-04-15T03:53:52.707Z,92.90
2018-04-15T03:56:33.612Z,92.80
2018-04-15T03:59:02.903Z,92.80
2018-04-15T04:01:32.587Z,92.80
2018-04-15T04:04:01.145Z,92.90
2018-04-15T04:06:30.824Z,93.10
2018-04-15T04:08:59.327Z,92.90
2018-04-15T04:11:32.194Z,93.20
2018-04-15T04:16:33.053Z,93.00
2018-04-15T04:22:52.377Z,92.70
2018-04-15T04:28:03.528Z,92.60
2018-04-15T04:30:38.196Z,92.70
2018-04-15T04:33:07.505Z,92.80
2018-04-15T04:35:45.124Z,92.80
2018-04-15T04:38:14.412Z,92.80
2018-04-15T04:40:43.365Z,92.80
2018-04-15T04:43:12.653Z,92.70
2018-04-15T04:45:46.266Z,92.60
2018-04-15T04:48:15.917Z,92.60
2018-04-15T04:50:57.698Z,92.80
2018-04-15T04:53:28.045Z,92.70
2018-04-15T04:55:57.753Z,92.60
2018-04-15T04:58:26.396Z,92.60
2018-04-15T05:00:55.250Z,92.50
2018-04-15T05:03:24.801Z,92.30
2018-04-15T05:06:05.861Z,92.50
2018-04-15T05:08:34.830Z,92.60
2018-04-15T05:11:04.118Z,92.70
2018-04-15T05:13:33.409Z,93.10
2018-04-15T05:16:06.677Z,92.80
2018-04-15T05:18:35.233Z,92.80
2018-04-15T05:21:04.257Z,92.90
2018-04-15T05:23:33.582Z,92.80
2018-04-15T05:26:06.045Z,92.80
2018-04-15T05:28:35.321Z,92.70
2018-04-15T05:31:08.624Z,92.60
2018-04-15T05:33:38.245Z,92.50
2018-04-15T05:38:48.812Z,92.50
2018-04-15T05:41:17.983Z,92.50
2018-04-15T05:43:46.533Z,92.50
2018-04-15T05:46:16.277Z,92.60
2018-04-15T05:48:45.113Z,92.50
2018-04-15T05:53:47.687Z,92.50
2018-04-15T05:56:20.852Z,92.30
2018-04-15T05:58:49.368Z,92.40
2018-04-15T06:03:49.745Z,92.50
2018-04-15T06:06:24.199Z,92.40
2018-04-15T06:08:54.116Z,92.10
2018-04-15T06:11:26.501Z,92.10
2018-04-15T06:13:55.394Z,91.90
2018-04-15T06:16:36.475Z,92.10
2018-04-15T06:19:06.146Z,91.90
2018-04-15T06:21:35.772Z,91.70
2018-04-15T06:24:04.341Z,91.80
2018-04-15T06:26:32.860Z,91.90
2018-04-15T06:29:03.158Z,89.00
2018-04-15T06:34:02.702Z,73.00
2018-04-15T06:39:13.373Z,64.10
2018-04-15T06:41:42.721Z,61.60
2018-04-15T06:44:11.529Z,59.60
2018-04-15T06:46:41.715Z,58.60
2018-04-15T06:51:44.458Z,58.00
2018-04-15T06:56:46.546Z,60.20
2018-04-15T06:59:16.549Z,61.00
2018-04-15T07:01:48.865Z,60.30
2018-04-15T07:06:52.545Z,68.30
2018-04-15T07:09:21.154Z,70.30
2018-04-15T07:12:02.159Z,71.60
2018-04-15T07:14:31.708Z,72.20
2018-04-15T07:17:00.647Z,73.40
2018-04-15T07:19:29.938Z,73.20
2018-04-15T07:22:00.499Z,67.10
2018-04-15T07:24:29.009Z,63.30
2018-04-15T07:27:01.967Z,66.40
2018-04-15T07:29:30.799Z,68.30
2018-04-15T07:32:11.762Z,66.90
2018-04-15T07:34:40.590Z,62.90
2018-04-15T07:37:10.278Z,58.30
2018-04-15T07:39:38.822Z,56.30
2018-04-15T07:42:09.644Z,56.80
2018-04-15T07:44:38.158Z,55.40
2018-04-15T07:47:14.312Z,52.80
2018-04-15T07:49:43.120Z,51.40
2018-04-15T07:52:14.637Z,49.60
2018-04-15T07:54:43.210Z,48.40
2018-04-15T07:57:16.541Z,49.30
2018-04-15T07:59:45.085Z,51.70
2018-04-15T08:02:18.115Z,49.40
2018-04-15T08:04:48.693Z,50.90
2018-04-15T08:07:21.432Z,51.50
2018-04-15T08:09:49.931Z,50.90
2018-04-15T08:12:23.041Z,50.70
2018-04-15T08:14:52.705Z,49.20
2018-04-15T08:17:25.277Z,47.60
2018-04-15T08:19:54.625Z,50.20
2018-04-15T08:24:57.826Z,56.60
2018-04-15T08:27:28.982Z,56.10
2018-04-15T08:29:57.870Z,54.10
2018-04-15T08:32:31.871Z,51.10
2018-04-15T08:35:01.475Z,49.70
2018-04-15T08:37:34.345Z,47.00
2018-04-15T08:40:02.846Z,48.80
2018-04-15T08:42:35.985Z,48.80
2018-04-15T08:45:04.515Z,50.00
2018-04-15T08:47:37.691Z,49.10
2018-04-15T08:50:06.520Z,50.10
2018-04-15T08:55:08.152Z,48.40
2018-04-15T08:57:50.477Z,46.60
2018-04-15T09:00:19.742Z,47.70
2018-04-15T09:02:48.336Z,46.60
2018-04-15T09:05:18.353Z,45.70
2018-04-15T09:07:48.052Z,44.40
2018-04-15T09:10:16.576Z,45.20
2018-04-15T09:12:49.738Z,43.40
2018-04-15T09:15:18.249Z,45.70
2018-04-15T09:17:52.034Z,45.80
2018-04-15T09:20:21.596Z,45.90
2018-04-15T09:22:54.481Z,45.50
2018-04-15T09:25:23.003Z,48.50
2018-04-15T09:27:57.463Z,50.60
2018-04-15T09:30:26.060Z,53.10
2018-04-15T09:32:59.286Z,54.90
2018-04-15T09:35:28.042Z,57.00
2018-04-15T09:38:02.009Z,56.10
2018-04-15T09:40:31.307Z,57.70
2018-04-15T09:43:05.411Z,56.70
2018-04-15T09:45:33.894Z,57.20
2018-04-15T09:48:15.137Z,58.60
2018-04-15T09:50:43.678Z,57.60
2018-04-15T09:53:13.225Z,58.20
2018-04-15T09:55:43.041Z,57.50
2018-04-15T10:00:48.442Z,56.40
2018-04-15T10:03:17.761Z,57.90
2018-04-15T10:05:46.718Z,57.60
2018-04-15T10:08:16.960Z,56.80
2018-04-15T10:10:46.248Z,58.90
2018-04-15T10:13:28.067Z,58.20
2018-04-15T10:15:58.097Z,56.40
2018-04-15T10:18:26.610Z,56.40
2018-04-15T10:20:55.487Z,55.70
2018-04-15T10:23:24.505Z,55.10
2018-04-15T10:28:25.957Z,55.70
2018-04-15T10:30:55.141Z,54.60
2018-04-15T10:33:36.733Z,54.70
2018-04-15T10:36:05.253Z,54.90
2018-04-15T10:38:33.782Z,53.00
2018-04-15T10:41:03.401Z,52.50
2018-04-15T10:43:33.414Z,52.90
2018-04-15T10:46:03.145Z,52.30
2018-04-15T10:48:36.165Z,51.90
2018-04-15T10:51:05.528Z,52.70
2018-04-15T10:53:36.362Z,53.20
2018-04-15T10:56:04.954Z,52.00
2018-04-15T10:58:37.566Z,51.40
2018-04-15T11:01:07.275Z,52.50
2018-04-15T11:03:40.996Z,50.90
2018-04-15T11:06:09.545Z,52.50
2018-04-15T11:08:44.747Z,51.50
2018-04-15T11:11:13.295Z,50.70
2018-04-15T11:13:45.744Z,51.40
2018-04-15T11:16:14.711Z,51.70
2018-04-15T11:18:48.305Z,50.80
2018-04-15T11:21:17.126Z,50.30
2018-04-15T11:23:59.251Z,50.80
2018-04-15T11:26:29.712Z,50.20
2018-04-15T11:28:58.277Z,50.50
2018-04-15T11:31:27.979Z,50.80
2018-04-15T11:33:56.587Z,51.90
2018-04-15T11:36:25.124Z,52.70
2018-04-15T11:38:58.480Z,52.90
2018-04-15T11:41:27.757Z,52.70
2018-04-15T11:44:01.242Z,52.00
2018-04-15T11:46:30.780Z,52.30
2018-04-15T11:49:11.838Z,53.40
2018-04-15T11:51:40.668Z,53.20
2018-04-15T11:54:09.199Z,53.90
2018-04-15T11:56:38.500Z,52.50
2018-04-15T11:59:09.554Z,52.90
2018-04-15T12:01:38.841Z,53.90
2018-04-15T12:04:12.077Z,53.80
2018-04-15T12:06:41.253Z,52.50
2018-04-15T12:09:22.233Z,52.60
2018-04-15T12:11:50.860Z,52.90
2018-04-15T12:14:20.411Z,53.20
2018-04-15T12:16:49.009Z,52.60
2018-04-15T12:19:18.249Z,52.20
2018-04-15T12:21:47.140Z,51.70
2018-04-15T12:24:21.245Z,52.90
2018-04-15T12:26:50.553Z,51.40
2018-04-15T12:29:23.680Z,52.00
2018-04-15T12:31:52.444Z,52.00
2018-04-15T12:34:26.168Z,52.30
2018-04-15T12:36:54.925Z,52.20
2018-04-15T12:39:36.650Z,51.00
2018-04-15T12:42:06.231Z,50.50
2018-04-15T12:44:35.551Z,50.80
2018-04-15T12:47:04.890Z,50.50
2018-04-15T12:49:33.455Z,49.00
2018-04-15T12:52:01.988Z,50.70
2018-04-15T12:54:35.088Z,51.20
2018-04-15T12:57:03.605Z,51.00
2018-04-15T12:59:37.225Z,51.80
2018-04-15T13:02:06.026Z,51.80
2018-04-15T13:04:38.975Z,51.90
2018-04-15T13:07:07.870Z,51.80
2018-04-15T13:09:40.962Z,51.90
2018-04-15T13:12:09.502Z,51.40
2018-04-15T13:14:43.293Z,50.40
2018-04-15T13:17:13.291Z,51.00
2018-04-15T13:19:46.563Z,51.80
2018-04-15T13:22:15.110Z,51.90
2018-04-15T13:24:47.726Z,52.00
2018-04-15T13:27:16.256Z,52.60
2018-04-15T13:29:58.507Z,52.00
2018-04-15T13:32:27.309Z,52.70
2018-04-15T13:34:55.861Z,53.00
2018-04-15T13:37:24.410Z,52.50
2018-04-15T13:39:54.974Z,52.00
2018-04-15T13:42:23.494Z,52.00
2018-04-15T13:44:57.309Z,51.40
2018-04-15T13:47:26.877Z,51.30
2018-04-15T13:50:07.826Z,50.90
2018-04-15T13:52:36.661Z,51.00
2018-04-15T13:55:06.013Z,51.40
2018-04-15T13:57:35.327Z,51.10
2018-04-15T14:00:05.455Z,50.60
2018-04-15T14:02:34.062Z,51.70
2018-04-15T14:05:16.213Z,51.40
2018-04-15T14:07:45.140Z,51.40
2018-04-15T14:10:13.692Z,50.00
2018-04-15T14:12:43.005Z,50.10
2018-04-15T14:15:13.509Z,49.70
2018-04-15T14:17:42.846Z,50.10
2018-04-15T14:20:15.320Z,49.40
2018-04-15T14:22:44.696Z,50.30
2018-04-15T14:25:17.187Z,50.60
2018-04-15T14:27:46.460Z,50.60
2018-04-15T14:30:20.417Z,49.80
2018-04-15T14:32:50.839Z,50.40
2018-04-15T14:35:22.925Z,50.70
2018-04-15T14:37:51.837Z,50.90
2018-04-15T14:40:23.933Z,51.20
2018-04-15T14:42:53.250Z,52.20
2018-04-15T14:45:25.810Z,52.50
2018-04-15T14:47:54.650Z,52.40
2018-04-15T14:50:36.003Z,51.70
2018-04-15T14:53:04.926Z,52.20
2018-04-15T14:55:34.265Z,54.00
2018-04-15T14:58:03.173Z,53.50
2018-04-15T15:00:32.187Z,54.40
2018-04-15T15:03:01.497Z,55.70
2018-04-15T15:05:33.978Z,55.70
2018-04-15T15:10:36.889Z,56.40
2018-04-15T15:15:38.071Z,57.60
2018-04-15T15:18:08.093Z,57.00
2018-04-15T15:20:40.420Z,55.60
2018-04-15T15:23:09.393Z,55.70
2018-04-15T15:25:51.825Z,56.00
2018-04-15T15:28:21.945Z,55.80
2018-04-15T15:33:14.033Z,55.60
2018-04-15T15:35:56.493Z,55.50
2018-04-15T15:38:25.017Z,56.30
2018-04-15T15:40:55.602Z,55.80
2018-04-15T15:43:24.140Z,54.90
2018-04-15T15:45:53.718Z,55.80
2018-04-15T15:48:23.484Z,55.00
2018-04-15T15:50:57.112Z,54.80
2018-04-15T15:53:26.409Z,56.00
2018-04-15T15:55:59.041Z,55.20
2018-04-15T15:58:29.086Z,53.60
2018-04-15T16:03:29.609Z,55.50
2018-04-15T16:06:03.070Z,55.60
2018-04-15T16:08:31.679Z,56.50
2018-04-15T16:11:07.905Z,55.10
2018-04-15T16:16:18.861Z,54.50
2018-04-15T16:18:48.500Z,54.70
2018-04-15T16:21:18.142Z,54.70
2018-04-15T16:23:46.712Z,55.60
2018-04-15T16:26:17.229Z,56.20
2018-04-15T16:28:45.817Z,56.40
2018-04-15T16:31:16.555Z,55.80
2018-04-15T16:33:46.589Z,55.30
2018-04-15T16:36:18.357Z,55.20
2018-04-15T16:38:46.952Z,55.50
2018-04-15T16:41:28.445Z,55.80
2018-04-15T16:43:58.504Z,55.80
2018-04-15T16:46:28.594Z,56.00
2018-04-15T16:48:57.528Z,55.80
2018-04-15T16:51:26.860Z,56.70
2018-04-15T16:53:55.595Z,56.00
2018-04-15T16:58:55.009Z,56.30
2018-04-15T17:01:28.172Z,57.70
2018-04-15T17:06:30.471Z,56.20
2018-04-15T17:08:59.251Z,56.80
2018-04-15T17:11:40.494Z,57.40
2018-04-15T17:14:09.306Z,57.60
2018-04-15T17:16:38.614Z,57.60
2018-04-15T17:21:38.797Z,57.40
2018-04-15T17:24:08.553Z,57.40
2018-04-15T17:26:40.465Z,57.50
2018-04-15T17:29:09.314Z,57.20
2018-04-15T17:31:41.225Z,57.30
2018-04-15T17:34:10.574Z,58.40
2018-04-15T17:36:52.160Z,58.00
2018-04-15T17:52:33.208Z,58.40
2018-04-15T17:55:01.749Z,58.10
2018-04-15T17:57:30.513Z,58.40
2018-04-15T17:59:59.075Z,58.20
2018-04-15T18:02:28.797Z,58.50
2018-04-15T18:04:58.701Z,58.70
2018-04-15T18:07:28.417Z,59.30
2018-04-15T18:23:19.112Z,62.40
2018-04-15T18:25:48.690Z,62.70
2018-04-15T18:28:18.172Z,63.20
2018-04-15T18:30:49.179Z,63.70
2018-04-15T18:33:19.275Z,64.10
2018-04-15T18:35:48.687Z,64.30
2018-04-15T18:40:47.321Z,64.90
2018-04-15T18:43:16.261Z,65.60
2018-04-15T18:45:44.866Z,65.90
2018-04-15T18:50:46.775Z,65.60
2018-04-15T18:53:19.998Z,66.60
2018-04-15T18:55:48.536Z,66.40
2018-04-15T19:00:50.773Z,66.70
2018-04-15T19:03:24.736Z,67.90
2018-04-15T19:05:54.193Z,67.90
2018-04-15T19:08:27.049Z,67.70
2018-04-15T19:10:56.802Z,67.60
2018-04-15T19:13:28.921Z,67.80
2018-04-15T19:15:59.071Z,67.70
2018-04-15T19:18:30.098Z,67.60
2018-04-15T19:20:59.374Z,67.40
2018-04-15T19:23:32.685Z,67.40
2018-04-15T19:26:02.552Z,67.20
2018-04-15T19:28:34.802Z,68.70
2018-04-15T19:31:03.320Z,68.80
2018-04-15T19:33:37.114Z,69.40
2018-04-15T19:36:06.464Z,69.10
2018-04-15T19:38:47.665Z,68.70
2018-04-15T19:41:16.773Z,69.70
2018-04-15T19:43:46.084Z,71.40
2018-04-15T19:46:14.703Z,70.70
2018-04-15T19:48:43.668Z,70.70
2018-04-15T19:51:13.461Z,70.70
2018-04-15T19:53:47.424Z,70.90
2018-04-15T19:56:16.804Z,71.00
2018-04-15T19:58:49.937Z,71.50
2018-04-15T20:01:18.481Z,71.10
2018-04-15T20:06:19.760Z,73.50
2018-04-15T20:08:52.542Z,72.60
2018-04-15T20:11:21.453Z,72.20
2018-04-15T20:13:55.039Z,72.50
2018-04-15T20:16:23.598Z,73.40
2018-04-15T20:21:28.286Z,74.50
2018-04-15T20:26:30.029Z,74.50
2018-04-15T20:29:02.638Z,74.70
2018-04-15T20:31:32.369Z,75.10
2018-04-15T20:34:06.214Z,75.80
2018-04-15T20:36:34.871Z,75.80
2018-04-15T20:41:39.663Z,75.10
2018-04-15T20:44:12.027Z,75.60
2018-04-15T20:46:41.857Z,74.90
2018-04-15T20:54:18.371Z,74.00
2018-04-15T20:56:47.203Z,73.90
2018-04-15T20:59:21.444Z,74.10
2018-04-15T21:01:50.839Z,73.30
2018-04-15T21:04:20.767Z,73.30
2018-04-15T21:06:58.751Z,74.00
2018-04-15T21:09:28.486Z,73.30
2018-04-15T21:11:57.952Z,74.00
2018-04-15T21:14:26.851Z,73.70
2018-04-15T21:16:56.555Z,74.30
2018-04-15T21:19:26.632Z,74.30
2018-04-15T21:21:55.655Z,73.30
2018-04-15T21:24:28.043Z,72.50
2018-04-15T21:29:38.753Z,74.80
2018-04-15T21:32:08.686Z,74.30
2018-04-15T21:34:37.246Z,74.10
2018-04-15T21:37:05.766Z,73.80
2018-04-15T21:39:34.690Z,73.80
2018-04-15T21:42:03.661Z,74.10
2018-04-15T21:44:37.790Z,73.80
2018-04-15T21:47:06.590Z,73.20
2018-04-15T21:49:40.072Z,72.70
2018-04-15T21:52:08.575Z,72.80
2018-04-15T21:54:41.113Z,72.80
2018-04-15T21:57:09.685Z,73.00
2018-04-15T21:59:42.829Z,73.00
2018-04-15T22:02:15.379Z,73.60
2018-04-15T22:07:14.366Z,72.90
2018-04-15T22:09:57.681Z,72.90
2018-04-15T22:12:26.197Z,72.90
2018-04-15T22:17:26.077Z,72.80
2018-04-15T22:24:56.573Z,73.20
2018-04-15T22:27:26.050Z,73.50
2018-04-15T22:29:58.847Z,74.00
2018-04-15T22:35:00.181Z,74.90
2018-04-15T22:37:28.672Z,75.00
2018-04-15T22:40:01.500Z,75.30
2018-04-15T22:42:30.471Z,75.30
2018-04-15T22:45:03.308Z,75.50
2018-04-15T22:47:31.917Z,75.60
2018-04-15T22:50:06.351Z,75.60
2018-04-15T22:52:35.046Z,76.40
2018-04-15T22:55:03.977Z,76.70
2018-04-15T22:57:34.134Z,77.20
2018-04-15T23:00:04.023Z,77.20
2018-04-15T23:02:33.716Z,77.60
2018-04-15T23:05:03.886Z,77.80
2018-04-15T23:07:33.530Z,77.80
2018-04-15T23:12:32.371Z,78.00
2018-04-15T23:15:01.091Z,77.90
2018-04-15T23:17:29.597Z,77.90
2018-04-15T23:19:59.831Z,78.10
2018-04-15T23:22:28.364Z,78.30
2018-04-15T23:24:56.953Z,78.60
2018-04-15T23:27:27.144Z,78.80
2018-04-15T23:29:55.655Z,79.20
2018-04-15T23:32:27.534Z,79.30
2018-04-15T23:34:56.537Z,79.40
2018-04-15T23:37:37.380Z,79.40
2018-04-15T23:40:06.300Z,79.10
2018-04-15T23:42:34.842Z,79.30
2018-04-15T23:45:03.334Z,79.20
2018-04-15T23:47:33.345Z,79.30
2018-04-15T23:50:01.897Z,79.80
2018-04-15T23:52:36.254Z,80.60
2018-04-15T23:55:05.080Z,80.20
2018-04-15T23:57:37.130Z,80.20
